Time;durP1;ratioP1;P1;durP2;ratioP2;P2;SDS_P1;SDS_P2;PMS_P1;PMS_P2;Temp;Humidity;BMP_temperature;BMP_pressure;BME280_temperature;BME280_humidity;BME280_pressure;Samples;Min_cycle;Max_cycle;Signal;HPM_P1;HPM_P2
2022/05/12 00:01:26;;;;;;;6.30;5.20;;;;;;;8.14;71.38;93930.44;5029218;28;20060;-45
2022/05/12 00:03:52;;;;;;;6.35;4.50;;;;;;;7.91;72.04;93928.50;5029425;28;20036;-47
2022/05/12 00:06:17;;;;;;;6.60;4.97;;;;;;;7.75;71.64;93915.75;5029272;28;20458;-44
2022/05/12 00:08:43;;;;;;;3.88;3.53;;;;;;;7.87;71.87;93919.81;5029315;28;20014;-45
2022/05/12 00:11:08;;;;;;;6.38;4.22;;;;;;;7.84;71.56;93918.84;5029331;28;20641;-45
2022/05/12 00:13:34;;;;;;;5.30;4.10;;;;;;;7.51;72.83;93933.75;5029333;28;20398;-44
2022/05/12 00:16:00;;;;;;;4.60;4.03;;;;;;;7.61;72.21;93928.66;5028912;28;20026;-45
2022/05/12 00:18:26;;;;;;;5.45;4.30;;;;;;;7.68;72.51;93928.06;5028457;28;20528;-45
2022/05/12 00:20:52;;;;;;;5.07;4.57;;;;;;;7.80;72.59;93925.91;5028861;28;20030;-44
2022/05/12 00:23:21;;;;;;;11.50;4.82;;;;;;;7.66;72.56;93927.84;5027965;28;20040;-45
2022/05/12 00:25:47;;;;;;;4.57;3.65;;;;;;;7.61;72.49;93921.16;5028872;28;20033;-44
2022/05/12 00:28:14;;;;;;;8.43;5.97;;;;;;;7.56;72.26;93930.19;5028933;28;20104;-44
2022/05/12 00:30:40;;;;;;;8.27;5.50;;;;;;;7.74;71.33;93927.97;5028734;28;20478;-47
2022/05/12 00:33:06;;;;;;;8.60;6.20;;;;;;;7.62;72.00;93935.63;5029028;28;20037;-46
2022/05/12 00:35:31;;;;;;;8.30;5.57;;;;;;;7.72;71.46;93933.25;5028622;28;20057;-44
2022/05/12 00:37:57;;;;;;;7.97;5.53;;;;;;;7.60;72.01;93933.38;5028668;28;20081;-45
2022/05/12 00:40:23;;;;;;;8.88;5.82;;;;;;;7.27;73.38;93936.53;5028791;28;20086;-46
2022/05/12 00:42:56;;;;;;;5.22;4.07;;;;;;;7.41;73.21;93931.88;5028863;28;20497;-46
2022/05/12 00:45:22;;;;;;;8.52;4.45;;;;;;;7.44;73.46;93939.09;5028854;28;20033;-45
2022/05/12 00:47:47;;;;;;;5.18;3.78;;;;;;;7.50;72.96;93935.00;5028675;28;20021;-44
2022/05/12 00:50:13;;;;;;;4.70;3.72;;;;;;;7.55;72.94;93934.22;5028711;28;20029;-46
2022/05/12 00:52:38;;;;;;;6.15;4.38;;;;;;;7.41;72.84;93942.84;5027547;28;20391;-44
2022/05/12 00:55:12;;;;;;;5.60;4.70;;;;;;;7.22;73.21;93942.81;5028662;28;20469;-44
2022/05/12 00:57:42;;;;;;;10.05;4.78;;;;;;;7.25;73.38;93930.81;5028692;28;20150;-46
2022/05/12 01:00:11;;;;;;;6.40;4.78;;;;;;;7.24;73.75;93937.53;5028331;28;20029;-45
2022/05/12 01:02:39;;;;;;;7.35;4.75;;;;;;;7.28;74.06;93931.75;5028585;28;20029;-45
2022/05/12 01:05:05;;;;;;;6.32;4.47;;;;;;;7.22;74.39;93933.81;5026996;28;20555;-47
2022/05/12 01:07:30;;;;;;;6.30;5.22;;;;;;;7.14;75.46;93941.16;5026917;28;20034;-45
2022/05/12 01:09:56;;;;;;;7.20;4.82;;;;;;;6.89;75.82;93943.13;5028217;28;20490;-45
2022/05/12 01:12:22;;;;;;;6.13;4.80;;;;;;;6.89;75.42;93943.13;5028109;28;20512;-44
2022/05/12 01:14:48;;;;;;;6.25;4.05;;;;;;;7.04;73.68;93948.25;5028067;28;20025;-45
2022/05/12 01:17:13;;;;;;;5.95;4.15;;;;;;;7.18;72.51;93931.38;5035923;28;20032;-46
2022/05/12 01:19:40;;;;;;;4.60;3.65;;;;;;;7.22;71.59;93947.56;5047706;28;20557;-46
2022/05/12 01:22:08;;;;;;;4.65;4.15;;;;;;;7.31;70.98;93945.22;5047826;28;20033;-44
2022/05/12 01:24:42;;;;;;;5.38;3.85;;;;;;;7.37;70.30;93951.38;5047861;28;20025;-45
2022/05/12 01:27:20;;;;;;;5.10;3.60;;;;;;;7.29;70.74;93942.25;5047853;28;20029;-46
2022/05/12 01:29:50;;;;;;;6.68;3.53;;;;;;;7.01;71.27;93949.25;5046653;28;20032;-48
2022/05/12 01:32:16;;;;;;;3.45;2.83;;;;;;;6.94;71.67;93945.09;5048021;28;20058;-44
2022/05/12 01:34:42;;;;;;;4.85;3.38;;;;;;;6.98;71.41;93940.06;5047574;28;20509;-46
2022/05/12 01:37:07;;;;;;;4.05;3.22;;;;;;;6.92;71.44;93942.09;5047963;28;20029;-44
2022/05/12 01:39:35;;;;;;;5.50;3.83;;;;;;;6.65;71.99;93945.81;5047845;28;20025;-45
2022/05/12 01:42:06;;;;;;;5.72;3.75;;;;;;;6.74;72.50;93953.72;5047536;28;20424;-45
2022/05/12 01:44:32;;;;;;;5.38;4.55;;;;;;;6.85;72.81;93943.41;5047832;28;20032;-46
2022/05/12 01:46:57;;;;;;;7.85;4.85;;;;;;;6.89;72.81;93943.88;5047508;28;20037;-47
2022/05/12 01:49:23;;;;;;;6.80;4.53;;;;;;;6.61;73.45;93924.16;5047288;28;20059;-45
2022/05/12 01:51:56;;;;;;;6.75;4.60;;;;;;;6.71;73.45;93941.78;5047413;28;20053;-46
2022/05/12 01:54:23;;;;;;;4.70;4.18;;;;;;;6.48;73.15;93940.47;5047297;28;20477;-45
2022/05/12 01:56:48;;;;;;;4.50;3.20;;;;;;;6.62;72.38;93941.38;5047679;28;20029;-47
2022/05/12 01:59:14;;;;;;;3.65;3.28;;;;;;;6.72;72.09;93937.78;5047559;28;20051;-45
2022/05/12 02:01:40;;;;;;;8.38;3.83;;;;;;;6.63;72.35;93951.06;5047310;28;20413;-45
2022/05/12 02:04:05;;;;;;;4.35;3.40;;;;;;;6.41;72.85;93943.75;5047545;28;20040;-44
2022/05/12 02:06:34;;;;;;;5.18;4.00;;;;;;;6.55;73.12;93942.66;5047222;28;20500;-44
2022/05/12 02:08:59;;;;;;;4.65;3.70;;;;;;;6.62;72.58;93944.88;5047078;28;20021;-46
2022/05/12 02:11:25;;;;;;;5.68;3.45;;;;;;;6.26;72.47;93948.13;5047480;28;20043;-44
2022/05/12 02:13:51;;;;;;;4.72;3.63;;;;;;;6.27;73.78;93944.13;5047039;28;20425;-46
2022/05/12 02:16:17;;;;;;;4.57;3.88;;;;;;;6.49;72.80;93950.22;5046069;28;20052;-45
2022/05/12 02:18:45;;;;;;;5.30;4.05;;;;;;;6.36;72.92;93957.53;5027173;28;20038;-44
2022/05/12 02:21:11;;;;;;;4.85;4.35;;;;;;;6.40;73.57;93958.75;5027461;28;20566;-44
2022/05/12 02:23:36;;;;;;;4.15;3.75;;;;;;;6.57;72.35;93958.63;5027141;28;20037;-45
2022/05/12 02:26:02;;;;;;;4.82;3.92;;;;;;;6.59;71.45;93959.59;5027404;28;20040;-44
2022/05/12 02:28:28;;;;;;;6.45;3.53;;;;;;;6.59;71.62;93962.34;5027284;28;20025;-44
2022/05/12 02:30:53;;;;;;;6.68;3.33;;;;;;;6.28;71.92;93959.34;5029945;28;20029;-45
2022/05/12 02:33:18;;;;;;;4.00;3.25;;;;;;;6.17;72.98;93964.88;5030595;28;20036;-45
2022/05/12 02:35:44;;;;;;;7.47;3.88;;;;;;;6.17;72.87;93964.88;5030787;28;20032;-43
2022/05/12 02:38:11;;;;;;;5.80;4.03;;;;;;;6.21;72.86;93965.34;5030777;28;20417;-44
2022/05/12 02:40:36;;;;;;;3.78;3.05;;;;;;;6.28;71.96;93968.28;5030765;28;20029;-45
2022/05/12 02:43:02;;;;;;;3.25;2.78;;;;;;;6.09;71.77;93968.16;5030383;28;20021;-43
2022/05/12 02:45:28;;;;;;;4.10;3.17;;;;;;;6.15;72.19;93970.13;5030437;28;20183;-44
2022/05/12 02:47:54;;;;;;;3.75;2.85;;;;;;;6.13;72.62;93972.63;5030259;28;20033;-46
2022/05/12 02:50:20;;;;;;;3.80;3.38;;;;;;;6.10;72.70;93963.41;5030263;28;20045;-44
2022/05/12 02:52:46;;;;;;;3.90;3.10;;;;;;;6.02;73.22;93954.25;5030540;28;20105;-46
2022/05/12 02:55:12;;;;;;;5.30;3.47;;;;;;;6.01;73.26;93972.69;5030218;28;20488;-44
2022/05/12 02:57:39;;;;;;;5.43;2.97;;;;;;;6.07;73.66;93975.38;5030281;28;20029;-43
2022/05/12 03:00:07;;;;;;;6.72;3.30;;;;;;;6.02;73.41;93978.94;5030188;28;20040;-44
2022/05/12 03:02:32;;;;;;;5.72;3.85;;;;;;;5.85;73.85;93970.75;5030432;28;20056;-44
2022/05/12 03:04:58;;;;;;;5.03;3.78;;;;;;;5.72;74.08;93972.53;5030426;28;20498;-45
2022/05/12 03:07:23;;;;;;;6.45;3.78;;;;;;;5.79;74.73;93977.50;5030324;28;20478;-45
2022/05/12 03:09:55;;;;;;;4.22;3.83;;;;;;;5.85;74.72;93973.50;5039371;28;20421;-45
2022/05/12 03:12:20;;;;;;;4.18;3.75;;;;;;;5.72;75.43;93980.75;5050172;28;20421;-45
2022/05/12 03:14:45;;;;;;;7.32;3.90;;;;;;;5.77;75.06;93975.25;5049900;28;20028;-44
2022/05/12 03:17:11;;;;;;;4.80;3.75;;;;;;;5.80;74.62;93974.28;5041221;28;20032;-44
2022/05/12 03:19:36;;;;;;;5.32;3.53;;;;;;;5.72;74.79;93978.00;5029733;28;20056;-44
2022/05/12 03:22:02;;;;;;;3.78;3.35;;;;;;;5.73;75.06;93977.53;5029727;28;20032;-45
2022/05/12 03:24:28;;;;;;;6.45;4.35;;;;;;;5.70;75.08;93983.25;5030157;28;20029;-45
2022/05/12 03:26:53;;;;;;;5.60;4.20;;;;;;;5.83;75.46;93983.44;5029706;28;20025;-44
2022/05/12 03:29:18;;;;;;;5.35;4.55;;;;;;;5.78;74.73;93986.97;5029912;28;20056;-44
2022/05/12 03:31:44;;;;;;;6.47;4.35;;;;;;;5.88;74.30;93986.22;5029703;28;20038;-45
2022/05/12 03:34:09;;;;;;;5.32;4.35;;;;;;;5.85;74.38;93989.94;5029944;28;20037;-45
2022/05/12 03:36:39;;;;;;;5.95;4.00;;;;;;;5.87;73.35;93984.72;5029603;28;20029;-44
2022/05/12 03:39:07;;;;;;;6.80;4.32;;;;;;;5.76;73.78;93992.22;5029858;28;20457;-44
2022/05/12 03:41:33;;;;;;;12.02;4.15;;;;;;;5.81;73.25;93994.91;5029039;28;20486;-45
2022/05/12 03:46:42;;;;;;;8.32;4.70;;;;;;;5.88;73.20;93990.94;5029704;28;20036;-45
2022/05/12 03:49:08;;;;;;;6.18;4.13;;;;;;;5.92;73.32;93996.91;5029690;28;20100;-44
2022/05/12 03:51:33;;;;;;;6.45;4.13;;;;;;;5.85;72.85;94003.66;5029654;28;20033;-45
2022/05/12 03:53:59;;;;;;;7.32;4.45;;;;;;;5.66;73.79;94005.44;5029418;28;20025;-44
2022/05/12 03:56:26;;;;;;;6.60;5.07;;;;;;;5.64;75.05;94002.47;5029294;28;20064;-45
2022/05/12 03:58:51;;;;;;;6.72;4.55;;;;;;;5.96;74.32;93995.38;5029522;28;20029;-44
2022/05/12 04:01:17;;;;;;;6.47;4.70;;;;;;;6.13;74.92;94002.78;5029211;28;20032;-45
2022/05/12 04:03:45;;;;;;;6.78;4.72;;;;;;;6.08;75.05;94007.81;5029443;28;20074;-43
2022/05/12 04:06:11;;;;;;;6.63;4.75;;;;;;;6.17;74.85;94006.00;5039308;28;20508;-45
2022/05/12 04:08:36;;;;;;;5.97;4.70;;;;;;;6.32;75.20;94006.41;5049260;28;20025;-45
2022/05/12 04:11:02;;;;;;;11.60;7.28;;;;;;;6.54;74.72;94012.50;5048894;28;20420;-46
2022/05/12 04:13:27;;;;;;;40.47;19.63;;;;;;;6.75;74.10;94026.59;5048947;28;20085;-45
2022/05/12 04:15:53;;;;;;;66.72;28.27;;;;;;;6.96;73.45;94013.94;5048816;28;20052;-44
2022/05/12 04:18:19;;;;;;;78.32;31.75;;;;;;;7.23;72.65;94014.97;5030596;28;20049;-47
2022/05/12 04:20:45;;;;;;;94.57;37.28;;;;;;;7.46;71.82;94014.25;5028936;28;20037;-45
2022/05/12 04:23:10;;;;;;;75.53;35.70;;;;;;;7.75;71.66;94009.94;5028837;28;20071;-45
2022/05/12 04:25:36;;;;;;;62.65;29.85;;;;;;;8.08;70.25;93998.53;5029161;28;20022;-46
2022/05/12 04:28:03;;;;;;;23.75;13.70;;;;;;;8.59;68.76;94010.41;5028698;28;20426;-44
2022/05/12 04:30:29;;;;;;;22.48;13.27;;;;;;;9.02;66.83;94013.75;5029070;28;20036;-44
2022/05/12 04:32:55;;;;;;;21.77;13.55;;;;;;;9.29;66.26;94020.03;5028719;28;20493;-44
2022/05/12 04:35:23;;;;;;;15.82;10.50;;;;;;;9.39;65.60;94017.63;5028913;28;20028;-44
2022/05/12 04:37:52;;;;;;;17.00;9.68;;;;;;;9.87;64.63;94020.75;5028714;28;20562;-46
2022/05/12 04:40:29;;;;;;;13.90;8.77;;;;;;;10.12;63.96;94017.81;5028625;28;20026;-45
2022/05/12 04:42:56;;;;;;;13.52;9.80;;;;;;;10.26;64.72;94017.28;5028594;28;20056;-47
2022/05/12 04:45:24;;;;;;;10.18;7.35;;;;;;;10.27;65.22;94001.44;5028769;28;20462;-46
2022/05/12 04:47:50;;;;;;;7.68;4.82;;;;;;;10.76;64.79;94010.69;5028434;28;20521;-45
2022/05/12 04:50:18;;;;;;;9.52;6.25;;;;;;;11.54;63.34;94031.69;5027246;28;20502;-45
2022/05/12 04:52:44;;;;;;;9.57;6.20;;;;;;;12.12;61.72;94031.94;5027732;28;20033;-48
2022/05/12 04:55:10;;;;;;;8.75;6.15;;;;;;;12.53;59.60;94031.03;5028658;28;20029;-44
2022/05/12 04:57:38;;;;;;;52.08;8.23;;;;;;;12.44;59.14;94031.53;5028318;28;20486;-46
2022/05/12 05:00:05;;;;;;;18.05;6.25;;;;;;;12.42;60.13;94033.34;5028252;28;20494;-53
2022/05/12 05:02:31;;;;;;;11.18;6.75;;;;;;;12.49;60.22;94038.19;5039377;28;20089;-46
2022/05/12 05:04:56;;;;;;;7.35;5.57;;;;;;;12.46;60.91;94025.44;5048389;28;20033;-44
2022/05/12 05:07:22;;;;;;;30.77;7.13;;;;;;;12.74;61.41;94033.69;5048353;28;20032;-45
2022/05/12 05:09:48;;;;;;;7.13;4.85;;;;;;;13.26;59.98;94021.25;5048013;28;20077;-46
2022/05/12 05:12:13;;;;;;;5.82;4.03;;;;;;;13.73;58.58;94024.25;5047964;28;20066;-45
2022/05/12 05:14:39;;;;;;;7.10;4.45;;;;;;;14.14;57.02;94020.34;5048298;28;20432;-47
2022/05/12 05:17:04;;;;;;;22.23;4.28;;;;;;;14.62;56.13;94023.94;5040278;28;20478;-46
2022/05/12 05:19:31;;;;;;;10.15;4.75;;;;;;;15.32;54.02;94024.50;5028003;28;20457;-47
2022/05/12 05:21:56;;;;;;;8.32;4.57;;;;;;;15.89;52.00;94013.34;5028301;28;20486;-47
2022/05/12 05:24:23;;;;;;;6.28;5.03;;;;;;;16.74;49.83;94025.88;5027901;28;20086;-45
2022/05/12 05:26:48;;;;;;;8.18;6.15;;;;;;;17.45;49.12;94021.78;5028256;28;20026;-45
2022/05/12 05:29:13;;;;;;;13.23;8.95;;;;;;;18.15;47.18;94021.63;5027991;28;20088;-44
2022/05/12 05:31:39;;;;;;;17.17;12.10;;;;;;;18.68;46.51;94028.34;5028228;28;20037;-45
2022/05/12 05:34:05;;;;;;;15.02;11.90;;;;;;;19.36;44.17;94024.19;5027790;28;20029;-45
2022/05/12 05:36:30;;;;;;;27.58;20.08;;;;;;;19.54;43.95;94023.38;5028084;28;20021;-46
2022/05/12 05:38:56;;;;;;;24.38;16.55;;;;;;;19.68;43.38;94026.44;5027746;28;20055;-48
2022/05/12 05:41:22;;;;;;;22.75;16.88;;;;;;;19.81;43.76;94025.22;5027999;28;20112;-46
2022/05/12 05:43:48;;;;;;;26.30;20.25;;;;;;;19.99;43.08;94023.66;5027766;28;20044;-49
2022/05/12 05:46:14;;;;;;;27.52;19.88;;;;;;;20.02;43.73;94019.66;5028109;28;20037;-45
2022/05/12 05:48:39;;;;;;;22.63;16.42;;;;;;;20.33;43.02;94021.16;5027888;28;20680;-44
2022/05/12 05:53:49;;;;;;;14.35;11.98;;;;;;;20.19;43.95;94020.16;5027947;28;20489;-46
2022/05/12 05:56:17;;;;;;;16.27;11.95;;;;;;;19.67;46.15;94017.31;5027851;28;20057;-45
2022/05/12 05:58:43;;;;;;;16.55;11.15;;;;;;;19.52;46.54;94014.84;5038040;28;20039;-45
2022/05/12 06:01:09;;;;;;;14.93;10.60;;;;;;;19.45;47.73;94004.53;5047674;28;20464;-45
2022/05/12 06:03:35;;;;;;;13.32;9.75;;;;;;;19.41;47.23;94004.25;5047364;28;20063;-45
2022/05/12 06:06:01;;;;;;;12.90;9.27;;;;;;;19.38;47.30;94019.44;5047245;28;20668;-48
2022/05/12 06:08:26;;;;;;;13.05;9.75;;;;;;;19.38;48.15;94010.31;5047105;28;20021;-45
2022/05/12 06:10:52;;;;;;;13.65;9.45;;;;;;;19.15;48.06;94012.81;5047429;28;20033;-45
2022/05/12 06:13:17;;;;;;;11.77;7.25;;;;;;;18.96;47.26;93999.59;5047454;28;20049;-45
2022/05/12 06:15:43;;;;;;;7.85;6.68;;;;;;;18.85;48.16;94017.75;5047056;28;20665;-46
2022/05/12 06:18:14;;;;;;;7.20;4.80;;;;;;;18.92;47.09;94016.84;5046821;28;20041;-44
2022/05/12 06:20:41;;;;;;;5.13;4.07;;;;;;;18.98;47.47;94007.41;5047056;28;20752;-45
2022/05/12 06:23:08;;;;;;;23.33;4.93;;;;;;;19.16;48.50;94012.25;5046995;28;20036;-46
2022/05/12 06:25:34;;;;;;;14.15;3.45;;;;;;;19.52;48.25;94017.66;5047326;28;20032;-46
2022/05/12 06:27:59;;;;;;;4.20;2.95;;;;;;;20.04;46.40;94009.31;5046900;28;20029;-46
2022/05/12 06:30:25;;;;;;;5.30;3.15;;;;;;;20.31;45.20;94006.25;5046838;28;20156;-44
2022/05/12 06:32:51;;;;;;;3.72;3.13;;;;;;;20.59;45.83;94007.38;5046920;28;20036;-46
2022/05/12 06:35:16;;;;;;;4.57;3.28;;;;;;;20.98;45.11;94014.16;5047135;28;20029;-45
2022/05/12 06:37:42;;;;;;;3.50;3.20;;;;;;;21.42;43.95;94017.00;5047122;28;20021;-45
2022/05/12 06:40:08;;;;;;;3.88;2.70;;;;;;;22.28;41.90;94015.28;5046837;28;20021;-46
2022/05/12 06:42:35;;;;;;;3.42;2.70;;;;;;;23.04;39.27;94013.44;5046770;28;20540;-46
2022/05/12 06:45:01;;;;;;;2.97;2.67;;;;;;;23.47;37.75;94014.47;5046806;28;20021;-47
2022/05/12 06:47:28;;;;;;;3.72;2.53;;;;;;;23.49;37.10;94017.41;5046641;28;20059;-46
2022/05/12 06:49:54;;;;;;;2.78;2.58;;;;;;;23.70;36.08;94014.31;5046624;28;20066;-46
2022/05/12 06:52:19;;;;;;;4.15;2.50;;;;;;;24.14;37.26;94010.38;5046921;28;20190;-44
2022/05/12 06:54:45;;;;;;;3.17;2.35;;;;;;;24.38;36.50;94013.72;5037800;28;20036;-45
2022/05/12 06:57:11;;;;;;;2.80;2.50;;;;;;;24.60;35.30;94012.03;5027072;28;20688;-45
2022/05/12 06:59:39;;;;;;;16.40;3.00;;;;;;;24.77;35.24;94005.88;5026746;28;20028;-45
2022/05/12 07:02:05;;;;;;;9.27;3.40;;;;;;;25.69;34.05;94015.31;5025673;28;20189;-45
2022/05/12 07:04:31;;;;;;;3.65;3.00;;;;;;;25.97;33.18;94010.22;5026975;28;20034;-44
2022/05/12 07:06:57;;;;;;;4.72;2.65;;;;;;;26.78;31.86;94006.09;5026915;28;20413;-45
2022/05/12 07:09:22;;;;;;;3.83;2.33;;;;;;;27.15;30.49;94009.09;5026822;28;20017;-45
2022/05/12 07:11:48;;;;;;;4.80;3.03;;;;;;;27.92;31.30;94007.22;5026920;28;20041;-46
2022/05/12 07:14:14;;;;;;;6.60;2.88;;;;;;;28.94;29.41;94012.41;5026557;28;20086;-46
2022/05/12 07:16:42;;;;;;;2.83;2.63;;;;;;;30.29;26.45;94008.97;5028393;28;20021;-45
2022/05/12 07:19:07;;;;;;;3.85;2.55;;;;;;;31.16;25.30;94012.19;5029708;28;20046;-46
2022/05/12 08:41:43;;;;;;;2.58;1.70;;;;;;;37.88;16.25;93985.34;5017997;28;20053;-46
2022/05/12 08:44:13;;;;;;;11.82;2.00;;;;;;;37.69;15.54;93986.72;5027797;28;20051;-47
2022/05/12 08:46:38;;;;;;;31.70;3.40;;;;;;;38.06;15.54;93988.19;5031140;28;20025;-46
2022/05/12 08:49:19;;;;;;;1.42;1.33;;;;;;;38.50;13.84;93990.31;5048551;28;20029;-44
2022/05/12 08:51:47;;;;;;;4.07;1.77;;;;;;;38.35;13.74;93989.63;5048775;27;20029;-46
2022/05/12 08:54:15;;;;;;;1.48;1.38;;;;;;;38.16;12.66;93991.09;5047485;28;20021;-45
2022/05/12 08:56:40;;;;;;;2.07;1.50;;;;;;;37.46;14.34;93988.91;5048416;28;20024;-45
2022/05/12 08:59:06;;;;;;;29.45;2.45;;;;;;;37.48;14.61;93994.66;5048416;28;20427;-45
2022/05/12 09:01:58;;;;;;;2.67;1.58;;;;;;;37.48;14.50;93993.94;5048258;28;20025;-44
2022/05/12 09:04:39;;;;;;;3.65;1.67;;;;;;;36.61;14.05;93993.63;5044581;28;20444;-46
2022/05/12 09:07:10;;;;;;;16.77;2.70;;;;;;;36.84;14.54;93998.03;5048393;28;20201;-44
2022/05/12 09:09:43;;;;;;;2.88;1.60;;;;;;;36.95;13.94;93985.16;5048009;28;20439;-44
2022/05/12 09:12:32;;;;;;;2.25;1.42;;;;;;;37.32;14.77;93985.94;5048341;28;20025;-44
2022/05/12 09:15:09;;;;;;;1.92;1.80;;;;;;;37.06;14.34;93988.78;5046789;28;20100;-43
2022/05/12 09:17:40;;;;;;;3.53;1.75;;;;;;;37.69;15.22;93981.69;5035974;28;20530;-46
2022/05/12 09:20:09;;;;;;;1.73;1.63;;;;;;;37.36;14.25;93974.47;5026881;28;20074;-44
2022/05/12 09:22:36;;;;;;;13.55;1.75;;;;;;;37.94;15.38;93980.28;5027980;28;20097;-44
2022/05/12 09:25:02;;;;;;;6.00;1.83;;;;;;;38.09;13.65;93983.88;5028013;28;20494;-45
2022/05/12 09:27:30;;;;;;;2.53;1.38;;;;;;;37.73;12.69;93978.09;5027042;28;20025;-45
2022/05/12 09:29:56;;;;;;;2.45;1.60;;;;;;;37.41;13.66;93980.94;5028071;28;20034;-44
2022/05/12 09:32:25;;;;;;;3.63;1.40;;;;;;;37.72;13.89;93986.03;5027049;28;20403;-45
2022/05/12 09:35:20;;;;;;;2.80;1.55;;;;;;;38.30;13.30;93982.41;5027871;28;20057;-45
2022/05/12 09:37:46;;;;;;;3.05;1.63;;;;;;;37.88;13.76;93988.91;5027910;28;20032;-47
2022/05/12 09:40:29;;;;;;;2.05;1.50;;;;;;;37.93;12.62;93995.41;5027294;28;20071;-44
2022/05/12 09:42:56;;;;;;;12.50;2.25;;;;;;;37.58;14.96;93994.66;5031603;28;20049;-43
2022/05/12 09:45:24;;;;;;;2.25;1.83;;;;;;;37.93;14.85;93983.88;5047570;28;20528;-46
2022/05/12 09:47:50;;;;;;;;;;;;;;;38.09;15.33;93977.38;5048010;28;20482;-43
2022/05/12 09:50:24;;;;;;;2.50;1.90;;;;;;;38.55;14.74;93983.09;5046257;28;19909;-43
2022/05/12 09:53:00;;;;;;;3.80;1.63;;;;;;;37.60;14.72;93982.44;5047421;28;20434;-49
2022/05/12 09:55:37;;;;;;;2.00;1.52;;;;;;;38.06;14.13;93968.00;5047647;28;20037;-45
2022/05/12 09:58:27;;;;;;;2.47;1.83;;;;;;;38.24;14.21;93973.03;5047394;28;20056;-44
2022/05/12 10:01:11;;;;;;;1.83;1.50;;;;;;;38.65;13.99;93960.66;5046477;28;20061;-45
2022/05/12 10:09:49;;;;;;;5.47;1.40;;;;;;;37.31;14.11;93963.63;5047413;28;20481;-43
2022/05/12 10:12:23;;;;;;;1.30;1.20;;;;;;;37.60;15.16;93971.59;5030352;28;20041;-44
2022/05/12 10:15:00;;;;;;;1.63;1.52;;;;;;;37.23;13.60;93964.34;5046358;28;20032;-43
2022/05/12 10:17:37;;;;;;;2.53;1.55;;;;;;;37.54;13.75;93965.13;5036370;28;20029;-45
2022/05/12 10:20:08;;;;;;;5.17;1.63;;;;;;;37.61;14.10;93960.81;5026424;28;20029;-44
2022/05/12 10:22:48;;;;;;;1.95;1.60;;;;;;;37.18;14.33;93960.75;5027157;28;20094;-43
2022/05/12 10:25:18;;;;;;;2.47;1.80;;;;;;;37.43;13.44;93949.25;5027179;28;20029;-43
2022/05/12 10:27:47;;;;;;;3.00;1.70;;;;;;;37.20;12.82;93949.22;5026262;28;20112;-44
2022/05/12 10:30:38;;;;;;;2.25;1.52;;;;;;;36.65;14.07;93949.75;5027302;28;20025;-44
2022/05/12 10:33:07;;;;;;;3.92;1.90;;;;;;;37.18;13.90;93952.09;5025862;28;20033;-45
2022/05/12 10:35:48;;;;;;;3.03;1.63;;;;;;;36.97;12.66;93944.84;5027065;28;20038;-44
2022/05/12 10:38:49;;;;;;;3.42;1.70;;;;;;;37.06;13.86;93945.59;5026183;28;20025;-46
2022/05/12 10:41:18;;;;;;;3.05;1.95;;;;;;;37.17;14.32;93939.13;5004661;28;20061;-47
2022/05/12 10:43:56;;;;;;;1.30;1.20;;;;;;;37.44;12.44;93942.06;5018734;28;20042;-44
2022/05/12 10:46:38;;;;;;;2.10;1.60;;;;;;;37.12;12.54;93934.09;5025843;28;20025;-44
2022/05/12 10:49:29;;;;;;;1.77;1.40;;;;;;;36.41;12.49;93928.06;5027058;28;20061;-44
2022/05/12 10:52:14;;;;;;;4.38;1.67;;;;;;;35.63;14.62;93925.41;5029497;28;20425;-44
2022/05/12 10:55:01;;;;;;;2.22;1.42;;;;;;;36.11;13.49;93918.56;5030635;28;20033;-45
2022/05/12 10:57:49;;;;;;;14.50;2.28;;;;;;;35.66;14.69;93918.28;5030568;28;20424;-44
2022/05/12 11:00:48;;;;;;;7.95;1.95;;;;;;;35.81;15.48;93913.34;5029073;28;20037;-45
2022/05/12 11:03:50;;;;;;;4.85;1.55;;;;;;;36.13;13.64;93907.78;5029018;28;20511;-47
2022/05/12 11:06:19;;;;;;;2.05;1.67;;;;;;;36.19;14.82;93910.00;5018177;28;20041;-45
2022/05/12 11:08:47;;;;;;;3.15;1.80;;;;;;;35.94;14.04;93920.59;5029240;28;20040;-44
2022/05/12 11:11:17;;;;;;;3.17;2.20;;;;;;;35.42;13.61;93917.31;5029995;28;20062;-45
2022/05/12 11:14:06;;;;;;;4.55;1.80;;;;;;;34.73;15.64;93913.78;5028875;28;20414;-45
2022/05/12 11:17:01;;;;;;;2.70;2.05;;;;;;;34.70;16.57;93912.31;5029683;28;20013;-45
2022/05/12 11:19:27;;;;;;;5.40;1.70;;;;;;;34.33;15.91;93905.41;5024613;28;20045;-44
2022/05/12 11:21:52;;;;;;;1.60;1.50;;;;;;;33.72;13.75;93905.28;5029914;28;20030;-42
2022/05/12 11:24:31;;;;;;;2.42;1.52;;;;;;;32.77;15.49;93910.13;5030038;28;20058;-45
2022/05/12 11:27:09;;;;;;;2.88;1.50;;;;;;;32.43;15.54;93905.88;5029885;28;20036;-44
2022/05/12 11:30:13;;;;;;;1.63;1.48;;;;;;;31.82;14.59;93904.59;5029780;28;20768;-44
2022/05/12 11:32:42;;;;;;;2.72;1.35;;;;;;;31.27;15.19;93902.59;5029793;28;20067;-44
2022/05/12 11:35:31;;;;;;;2.42;1.38;;;;;;;31.35;15.22;93899.22;5030180;28;20108;-44
2022/05/12 11:38:03;;;;;;;2.00;1.42;;;;;;;30.97;14.35;93890.44;5048294;28;20081;-45
2022/05/12 11:40:41;;;;;;;2.42;1.58;;;;;;;30.02;13.53;93881.44;5049576;28;20025;-45
2022/05/12 11:46:20;;;;;;;1.20;1.10;;;;;;;29.96;14.84;93872.72;5049453;28;20040;-49
2022/05/12 11:49:13;;;;;;;1.65;1.40;;;;;;;29.61;12.78;93865.28;5048438;28;20029;-45
2022/05/12 11:52:05;;;;;;;1.38;1.20;;;;;;;29.55;16.33;93867.97;5049656;28;20398;-46
2022/05/12 11:54:34;;;;;;;2.10;1.83;;;;;;;29.51;14.74;93859.31;5049304;28;20037;-48
2022/05/12 11:57:02;;;;;;;4.63;1.25;;;;;;;29.51;15.53;93864.25;5048400;28;20106;-46
2022/05/12 11:59:30;;;;;;;2.58;2.00;;;;;;;29.48;17.67;93857.78;5049517;28;20033;-49
2022/05/12 12:02:33;;;;;;;6.38;2.15;;;;;;;29.24;16.51;93857.03;5049032;28;20033;-48
2022/05/12 12:05:00;;;;;;;2.30;2.03;;;;;;;29.02;18.56;93853.50;5049417;28;20029;-48
2022/05/12 12:07:32;;;;;;;2.63;1.80;;;;;;;28.45;16.23;93860.13;5049351;28;20052;-45
2022/05/12 12:10:22;;;;;;;2.17;1.58;;;;;;;28.43;15.23;93857.22;5048938;28;20037;-46
2022/05/12 12:12:52;;;;;;;2.28;1.60;;;;;;;28.26;17.19;93852.34;5049215;28;20032;-46
2022/05/12 12:15:23;;;;;;;4.03;1.70;;;;;;;28.32;17.24;93849.75;5048922;28;20033;-46
2022/05/12 12:17:50;;;;;;;5.53;1.90;;;;;;;28.37;18.02;93845.63;5035284;28;20030;-47
2022/05/12 12:20:18;;;;;;;4.03;1.20;;;;;;;28.33;16.26;93847.59;5029218;28;20168;-45
2022/05/12 12:22:49;;;;;;;1.42;1.33;;;;;;;28.30;17.03;93835.47;5029361;28;20041;-46
2022/05/12 12:25:14;;;;;;;5.07;1.83;;;;;;;28.41;18.37;93836.53;5027992;28;20418;-48
2022/05/12 12:27:52;;;;;;;1.50;1.40;;;;;;;28.53;18.58;93829.16;5029192;28;20082;-46
2022/05/12 12:30:29;;;;;;;5.50;2.03;;;;;;;28.59;18.74;93825.09;5028740;28;20418;-48
2022/05/12 12:33:17;;;;;;;2.67;2.10;;;;;;;28.40;20.83;93827.28;5043104;28;20036;-47
2022/05/12 12:36:03;;;;;;;3.78;2.25;;;;;;;28.33;19.06;93833.41;5048735;28;20028;-47
2022/05/12 12:38:46;;;;;;;8.98;3.28;;;;;;;28.20;21.79;93825.84;5048603;28;20628;-46
2022/05/12 12:41:22;;;;;;;5.35;2.55;;;;;;;28.19;21.34;93822.31;5048595;28;20501;-45
2022/05/12 12:44:00;;;;;;;2.63;2.42;;;;;;;28.30;21.47;93812.75;5048751;28;20494;-46
2022/05/12 12:46:48;;;;;;;5.50;2.97;;;;;;;28.31;22.37;93811.34;5048886;28;20036;-48
2022/05/12 12:49:19;;;;;;;6.93;2.90;;;;;;;28.18;22.33;93806.66;5047222;28;20489;-47
2022/05/12 12:51:52;;;;;;;2.90;2.65;;;;;;;28.07;24.10;93810.53;5048779;28;20028;-46
2022/05/12 12:57:25;;;;;;;7.53;2.60;;;;;;;27.86;21.17;93804.75;5048676;28;20040;-46
2022/05/12 13:00:00;;;;;;;3.63;2.72;;;;;;;27.86;21.58;93794.16;5047167;28;20021;-44
2022/05/12 13:02:40;;;;;;;4.53;2.45;;;;;;;27.95;21.49;93795.88;5047145;28;20037;-45
2022/05/12 13:05:27;;;;;;;5.47;2.80;;;;;;;27.92;23.55;93794.34;5047050;28;20032;-47
2022/05/12 13:08:01;;;;;;;9.55;2.90;;;;;;;27.80;24.96;93785.44;5048073;28;20037;-47
2022/05/12 13:10:29;;;;;;;2.72;2.53;;;;;;;27.81;22.64;93781.19;5048143;28;20029;-45
2022/05/12 13:13:00;;;;;;;4.43;2.65;;;;;;;27.93;22.52;93784.47;5047790;28;20085;-48
2022/05/12 13:15:27;;;;;;;5.72;2.13;;;;;;;28.01;22.45;93781.94;5047890;28;20107;-47
2022/05/12 13:17:56;;;;;;;8.50;2.70;;;;;;;28.08;22.44;93782.88;5033807;28;20049;-47
2022/05/12 13:20:24;;;;;;;2.70;2.38;;;;;;;28.07;22.46;93782.13;5028359;28;20019;-50
2022/05/12 13:22:55;;;;;;;3.60;2.33;;;;;;;28.15;21.87;93782.44;5026927;28;20565;-47
2022/05/12 13:25:30;;;;;;;2.72;2.53;;;;;;;28.06;22.36;93777.84;5026778;28;20436;-46